sensor_id;sensor_type;location;lat;lon;timestamp;temperature;humidity
18597;DHT22;9428;50.950;6.912;2022-08-01T00:01:31;21.90;99.90
18597;DHT22;9428;50.950;6.912;2022-08-01T00:04:19;22.00;99.90
18597;DHT22;9428;50.950;6.912;2022-08-01T00:07:06;21.90;99.90
18597;DHT22;9428;50.950;6.912;2022-08-01T00:09:53;21.90;99.90
18597;DHT22;9428;50.950;6.912;2022-08-01T00:12:43;21.80;99.90
18597;DHT22;9428;50.950;6.912;2022-08-01T00:15:31;21.80;99.90
18597;DHT22;9428;50.950;6.912;2022-08-01T00:18:19;21.90;99.90
18597;DHT22;9428;50.950;6.912;2022-08-01T00:21:06;21.90;99.90
18597;DHT22;9428;50.950;6.912;2022-08-01T00:23:54;21.90;99.90
18597;DHT22;9428;50.950;6.912;2022-08-01T00:26:41;21.90;99.90
18597;DHT22;9428;50.950;6.912;2022-08-01T00:29:30;21.80;99.90
18597;DHT22;9428;50.950;6.912;2022-08-01T00:32:17;21.80;99.90
18597;DHT22;9428;50.950;6.912;2022-08-01T00:35:05;21.80;99.90
18597;DHT22;9428;50.950;6.912;2022-08-01T00:37:52;21.90;99.90
18597;DHT22;9428;50.950;6.912;2022-08-01T00:40:39;21.90;99.90
18597;DHT22;9428;50.950;6.912;2022-08-01T00:43:27;21.80;99.90
18597;DHT22;9428;50.950;6.912;2022-08-01T00:46:15;21.80;99.90
18597;DHT22;9428;50.950;6.912;2022-08-01T00:49:03;21.70;99.90
18597;DHT22;9428;50.950;6.912;2022-08-01T00:51:50;21.70;99.90
18597;DHT22;9428;50.950;6.912;2022-08-01T00:54:37;21.60;99.90
18597;DHT22;9428;50.950;6.912;2022-08-01T00:57:25;21.60;99.90
18597;DHT22;9428;50.950;6.912;2022-08-01T01:00:14;21.40;99.90
18597;DHT22;9428;50.950;6.912;2022-08-01T01:03:02;21.30;99.90
18597;DHT22;9428;50.950;6.912;2022-08-01T01:05:58;21.30;99.90
18597;DHT22;9428;50.950;6.912;2022-08-01T01:08:54;21.40;99.90
18597;DHT22;9428;50.950;6.912;2022-08-01T01:11:49;21.30;99.90
18597;DHT22;9428;50.950;6.912;2022-08-01T01:14:45;21.30;99.90
18597;DHT22;9428;50.950;6.912;2022-08-01T01:17:39;21.30;99.90
18597;DHT22;9428;50.950;6.912;2022-08-01T01:20:31;21.20;99.90
18597;DHT22;9428;50.950;6.912;2022-08-01T01:23:40;21.20;99.90
18597;DHT22;9428;50.950;6.912;2022-08-01T01:26:38;21.10;99.90
18597;DHT22;9428;50.950;6.912;2022-08-01T01:29:31;21.10;99.90
18597;DHT22;9428;50.950;6.912;2022-08-01T01:32:25;21.20;99.90
18597;DHT22;9428;50.950;6.912;2022-08-01T01:35:19;21.20;99.90
18597;DHT22;9428;50.950;6.912;2022-08-01T01:38:13;21.10;99.90
18597;DHT22;9428;50.950;6.912;2022-08-01T01:41:03;21.20;99.90
18597;DHT22;9428;50.950;6.912;2022-08-01T01:43:52;21.10;99.90
18597;DHT22;9428;50.950;6.912;2022-08-01T01:46:42;21.10;99.90
18597;DHT22;9428;50.950;6.912;2022-08-01T01:49:32;21.10;99.90
18597;DHT22;9428;50.950;6.912;2022-08-01T01:52:22;21.10;99.90
18597;DHT22;9428;50.950;6.912;2022-08-01T01:55:12;21.00;99.90
18597;DHT22;9428;50.950;6.912;2022-08-01T01:58:00;21.10;99.90
18597;DHT22;9428;50.950;6.912;2022-08-01T02:00:50;21.10;99.90
18597;DHT22;9428;50.950;6.912;2022-08-01T02:03:40;21.10;99.90
18597;DHT22;9428;50.950;6.912;2022-08-01T02:06:28;21.10;99.90
18597;DHT22;9428;50.950;6.912;2022-08-01T02:09:17;21.10;99.90
18597;DHT22;9428;50.950;6.912;2022-08-01T02:12:06;21.10;99.90
18597;DHT22;9428;50.950;6.912;2022-08-01T02:14:54;21.00;99.90
18597;DHT22;9428;50.950;6.912;2022-08-01T02:17:44;21.00;99.90
18597;DHT22;9428;50.950;6.912;2022-08-01T02:20:34;21.00;99.90
18597;DHT22;9428;50.950;6.912;2022-08-01T02:23:24;21.00;99.90
18597;DHT22;9428;50.950;6.912;2022-08-01T02:26:15;21.00;99.90
18597;DHT22;9428;50.950;6.912;2022-08-01T02:29:07;21.00;99.90
18597;DHT22;9428;50.950;6.912;2022-08-01T02:31:58;21.00;99.90
18597;DHT22;9428;50.950;6.912;2022-08-01T02:34:49;21.00;99.90
18597;DHT22;9428;50.950;6.912;2022-08-01T02:37:39;21.00;99.90
18597;DHT22;9428;50.950;6.912;2022-08-01T02:40:31;21.10;99.90
18597;DHT22;9428;50.950;6.912;2022-08-01T02:43:21;21.00;99.90
18597;DHT22;9428;50.950;6.912;2022-08-01T02:46:15;21.00;99.90
18597;DHT22;9428;50.950;6.912;2022-08-01T02:49:06;21.10;99.90
18597;DHT22;9428;50.950;6.912;2022-08-01T02:51:55;21.00;99.90
18597;DHT22;9428;50.950;6.912;2022-08-01T02:54:48;21.00;99.90
18597;DHT22;9428;50.950;6.912;2022-08-01T02:57:36;20.90;99.90
18597;DHT22;9428;50.950;6.912;2022-08-01T03:00:25;20.90;99.90
18597;DHT22;9428;50.950;6.912;2022-08-01T03:03:14;20.90;99.90
18597;DHT22;9428;50.950;6.912;2022-08-01T03:06:03;21.00;99.90
18597;DHT22;9428;50.950;6.912;2022-08-01T03:08:51;21.00;99.90
18597;DHT22;9428;50.950;6.912;2022-08-01T03:11:44;20.50;99.90
18597;DHT22;9428;50.950;6.912;2022-08-01T03:14:35;21.00;99.90
18597;DHT22;9428;50.950;6.912;2022-08-01T03:17:25;21.00;99.90
18597;DHT22;9428;50.950;6.912;2022-08-01T03:20:15;21.00;99.90
18597;DHT22;9428;50.950;6.912;2022-08-01T03:23:06;20.90;99.90
18597;DHT22;9428;50.950;6.912;2022-08-01T03:25:54;20.90;99.90
18597;DHT22;9428;50.950;6.912;2022-08-01T03:28:44;20.90;99.90
18597;DHT22;9428;50.950;6.912;2022-08-01T03:31:34;20.90;99.90
18597;DHT22;9428;50.950;6.912;2022-08-01T03:34:22;20.90;99.90
18597;DHT22;9428;50.950;6.912;2022-08-01T03:37:14;20.80;99.90
18597;DHT22;9428;50.950;6.912;2022-08-01T03:40:06;20.90;99.90
18597;DHT22;9428;50.950;6.912;2022-08-01T03:42:59;20.90;99.90
18597;DHT22;9428;50.950;6.912;2022-08-01T03:45:51;20.90;99.90
18597;DHT22;9428;50.950;6.912;2022-08-01T03:48:43;20.90;99.90
18597;DHT22;9428;50.950;6.912;2022-08-01T03:51:33;20.90;99.90
18597;DHT22;9428;50.950;6.912;2022-08-01T03:54:21;20.90;99.90
18597;DHT22;9428;50.950;6.912;2022-08-01T03:57:10;20.90;99.90
18597;DHT22;9428;50.950;6.912;2022-08-01T03:59:58;20.90;99.90
18597;DHT22;9428;50.950;6.912;2022-08-01T04:02:48;20.90;99.90
18597;DHT22;9428;50.950;6.912;2022-08-01T04:05:36;20.90;99.90
18597;DHT22;9428;50.950;6.912;2022-08-01T04:08:28;20.90;99.90
18597;DHT22;9428;50.950;6.912;2022-08-01T04:11:21;20.80;99.90
18597;DHT22;9428;50.950;6.912;2022-08-01T04:14:09;20.80;99.90
18597;DHT22;9428;50.950;6.912;2022-08-01T04:16:56;20.90;99.90
18597;DHT22;9428;50.950;6.912;2022-08-01T04:19:45;20.80;99.90
18597;DHT22;9428;50.950;6.912;2022-08-01T04:22:33;20.90;99.90
18597;DHT22;9428;50.950;6.912;2022-08-01T04:25:25;20.80;99.90
18597;DHT22;9428;50.950;6.912;2022-08-01T04:28:14;20.80;99.90
18597;DHT22;9428;50.950;6.912;2022-08-01T04:31:02;20.80;99.90
18597;DHT22;9428;50.950;6.912;2022-08-01T04:33:52;20.90;99.90
18597;DHT22;9428;50.950;6.912;2022-08-01T04:36:42;20.90;99.90
18597;DHT22;9428;50.950;6.912;2022-08-01T04:39:32;20.80;99.90
18597;DHT22;9428;50.950;6.912;2022-08-01T04:42:22;20.80;99.90
18597;DHT22;9428;50.950;6.912;2022-08-01T04:45:10;20.80;99.90
18597;DHT22;9428;50.950;6.912;2022-08-01T04:47:58;20.80;99.90
18597;DHT22;9428;50.950;6.912;2022-08-01T04:50:46;20.80;99.90
18597;DHT22;9428;50.950;6.912;2022-08-01T04:53:35;20.90;99.90
18597;DHT22;9428;50.950;6.912;2022-08-01T04:56:22;20.80;99.90
18597;DHT22;9428;50.950;6.912;2022-08-01T04:59:09;20.90;99.90
18597;DHT22;9428;50.950;6.912;2022-08-01T05:02:16;20.80;99.90
18597;DHT22;9428;50.950;6.912;2022-08-01T05:05:04;20.90;99.90
18597;DHT22;9428;50.950;6.912;2022-08-01T05:07:52;20.80;99.90
18597;DHT22;9428;50.950;6.912;2022-08-01T05:10:41;20.90;99.90
18597;DHT22;9428;50.950;6.912;2022-08-01T05:13:28;20.80;99.90
18597;DHT22;9428;50.950;6.912;2022-08-01T05:16:16;20.80;99.90
18597;DHT22;9428;50.950;6.912;2022-08-01T05:19:03;20.90;99.90
18597;DHT22;9428;50.950;6.912;2022-08-01T05:21:50;20.90;99.90
18597;DHT22;9428;50.950;6.912;2022-08-01T05:24:38;20.90;99.90
18597;DHT22;9428;50.950;6.912;2022-08-01T05:27:27;20.90;99.90
18597;DHT22;9428;50.950;6.912;2022-08-01T05:30:15;20.90;99.90
18597;DHT22;9428;50.950;6.912;2022-08-01T05:33:03;20.90;99.90
18597;DHT22;9428;50.950;6.912;2022-08-01T05:35:50;20.90;99.90
18597;DHT22;9428;50.950;6.912;2022-08-01T05:38:38;20.90;99.90
18597;DHT22;9428;50.950;6.912;2022-08-01T05:41:25;20.80;99.90
18597;DHT22;9428;50.950;6.912;2022-08-01T05:44:14;20.80;99.90
18597;DHT22;9428;50.950;6.912;2022-08-01T05:47:01;20.80;99.90
18597;DHT22;9428;50.950;6.912;2022-08-01T05:49:48;20.60;99.90
18597;DHT22;9428;50.950;6.912;2022-08-01T05:52:36;20.70;99.90
18597;DHT22;9428;50.950;6.912;2022-08-01T05:55:23;20.70;99.90
18597;DHT22;9428;50.950;6.912;2022-08-01T05:58:10;20.70;99.90
18597;DHT22;9428;50.950;6.912;2022-08-01T06:00:59;20.80;99.90
18597;DHT22;9428;50.950;6.912;2022-08-01T06:03:46;20.80;99.90
18597;DHT22;9428;50.950;6.912;2022-08-01T06:06:33;20.80;99.90
18597;DHT22;9428;50.950;6.912;2022-08-01T06:09:20;20.90;99.90
18597;DHT22;9428;50.950;6.912;2022-08-01T06:12:08;21.00;99.90
18597;DHT22;9428;50.950;6.912;2022-08-01T06:14:55;21.00;99.90
18597;DHT22;9428;50.950;6.912;2022-08-01T06:17:44;21.00;99.90
18597;DHT22;9428;50.950;6.912;2022-08-01T06:20:31;21.10;99.90
18597;DHT22;9428;50.950;6.912;2022-08-01T06:23:20;21.10;99.90
18597;DHT22;9428;50.950;6.912;2022-08-01T06:26:07;21.30;99.90
18597;DHT22;9428;50.950;6.912;2022-08-01T06:28:54;21.20;99.90
18597;DHT22;9428;50.950;6.912;2022-08-01T06:31:42;21.40;99.90
18597;DHT22;9428;50.950;6.912;2022-08-01T06:34:30;21.50;99.90
18597;DHT22;9428;50.950;6.912;2022-08-01T06:37:17;21.40;99.90
18597;DHT22;9428;50.950;6.912;2022-08-01T06:40:07;21.40;99.90
18597;DHT22;9428;50.950;6.912;2022-08-01T06:42:54;21.50;99.90
18597;DHT22;9428;50.950;6.912;2022-08-01T06:45:42;21.50;99.90
18597;DHT22;9428;50.950;6.912;2022-08-01T06:48:29;21.50;99.90
18597;DHT22;9428;50.950;6.912;2022-08-01T06:51:18;21.60;99.90
18597;DHT22;9428;50.950;6.912;2022-08-01T06:54:06;21.60;99.90
18597;DHT22;9428;50.950;6.912;2022-08-01T06:56:53;21.60;99.90
18597;DHT22;9428;50.950;6.912;2022-08-01T06:59:41;21.50;99.90
18597;DHT22;9428;50.950;6.912;2022-08-01T07:02:28;21.40;99.90
18597;DHT22;9428;50.950;6.912;2022-08-01T07:05:15;21.40;99.90
18597;DHT22;9428;50.950;6.912;2022-08-01T07:08:04;21.30;99.90
18597;DHT22;9428;50.950;6.912;2022-08-01T07:10:52;21.50;99.90
18597;DHT22;9428;50.950;6.912;2022-08-01T07:13:39;21.40;99.90
18597;DHT22;9428;50.950;6.912;2022-08-01T07:16:26;21.40;99.90
18597;DHT22;9428;50.950;6.912;2022-08-01T07:19:14;21.50;99.90
18597;DHT22;9428;50.950;6.912;2022-08-01T07:22:01;21.40;99.90
18597;DHT22;9428;50.950;6.912;2022-08-01T07:24:50;21.60;99.90
18597;DHT22;9428;50.950;6.912;2022-08-01T07:27:37;21.60;99.90
18597;DHT22;9428;50.950;6.912;2022-08-01T07:30:25;21.60;99.90
18597;DHT22;9428;50.950;6.912;2022-08-01T07:33:12;21.70;99.90
18597;DHT22;9428;50.950;6.912;2022-08-01T07:35:59;21.60;99.90
18597;DHT22;9428;50.950;6.912;2022-08-01T07:38:47;21.60;99.90
18597;DHT22;9428;50.950;6.912;2022-08-01T07:41:35;21.80;99.90
18597;DHT22;9428;50.950;6.912;2022-08-01T07:44:23;21.80;99.90
18597;DHT22;9428;50.950;6.912;2022-08-01T07:47:10;21.90;99.90
18597;DHT22;9428;50.950;6.912;2022-08-01T07:50:01;21.90;99.90
18597;DHT22;9428;50.950;6.912;2022-08-01T07:52:48;22.20;99.90
18597;DHT22;9428;50.950;6.912;2022-08-01T07:55:36;22.20;99.90
18597;DHT22;9428;50.950;6.912;2022-08-01T07:58:24;22.10;99.90
18597;DHT22;9428;50.950;6.912;2022-08-01T08:01:11;22.20;99.90
18597;DHT22;9428;50.950;6.912;2022-08-01T08:03:59;22.20;99.90
18597;DHT22;9428;50.950;6.912;2022-08-01T08:06:46;22.30;99.90
18597;DHT22;9428;50.950;6.912;2022-08-01T08:09:34;22.40;99.90
18597;DHT22;9428;50.950;6.912;2022-08-01T08:12:22;22.30;99.90
18597;DHT22;9428;50.950;6.912;2022-08-01T08:15:11;22.30;99.90
18597;DHT22;9428;50.950;6.912;2022-08-01T08:17:58;22.20;99.90
18597;DHT22;9428;50.950;6.912;2022-08-01T08:20:46;22.40;99.90
18597;DHT22;9428;50.950;6.912;2022-08-01T08:23:33;22.60;99.90
18597;DHT22;9428;50.950;6.912;2022-08-01T08:26:38;22.80;99.90
18597;DHT22;9428;50.950;6.912;2022-08-01T08:29:26;22.90;99.90
18597;DHT22;9428;50.950;6.912;2022-08-01T08:32:16;22.90;99.90
18597;DHT22;9428;50.950;6.912;2022-08-01T08:35:04;22.90;99.90
18597;DHT22;9428;50.950;6.912;2022-08-01T08:37:52;22.80;99.90
18597;DHT22;9428;50.950;6.912;2022-08-01T08:40:39;22.90;99.90
18597;DHT22;9428;50.950;6.912;2022-08-01T08:43:27;23.10;99.90
18597;DHT22;9428;50.950;6.912;2022-08-01T08:46:14;23.30;99.90
18597;DHT22;9428;50.950;6.912;2022-08-01T08:49:03;23.40;99.90
18597;DHT22;9428;50.950;6.912;2022-08-01T08:51:52;23.10;99.90
18597;DHT22;9428;50.950;6.912;2022-08-01T08:54:41;23.10;99.90
18597;DHT22;9428;50.950;6.912;2022-08-01T08:57:29;23.00;99.90
18597;DHT22;9428;50.950;6.912;2022-08-01T09:00:17;23.10;99.90
18597;DHT22;9428;50.950;6.912;2022-08-01T09:03:04;23.20;99.90
18597;DHT22;9428;50.950;6.912;2022-08-01T09:05:53;23.20;99.90
18597;DHT22;9428;50.950;6.912;2022-08-01T09:08:40;23.10;99.90
18597;DHT22;9428;50.950;6.912;2022-08-01T09:11:28;23.20;99.90
18597;DHT22;9428;50.950;6.912;2022-08-01T09:14:16;23.20;99.90
18597;DHT22;9428;50.950;6.912;2022-08-01T09:17:09;23.30;99.90
18597;DHT22;9428;50.950;6.912;2022-08-01T09:19:58;23.20;99.90
18597;DHT22;9428;50.950;6.912;2022-08-01T09:22:47;23.30;99.90
18597;DHT22;9428;50.950;6.912;2022-08-01T09:25:52;23.30;99.90
18597;DHT22;9428;50.950;6.912;2022-08-01T09:28:41;23.20;99.90
18597;DHT22;9428;50.950;6.912;2022-08-01T09:31:29;22.80;99.90
18597;DHT22;9428;50.950;6.912;2022-08-01T09:34:16;23.00;99.90
18597;DHT22;9428;50.950;6.912;2022-08-01T09:37:10;23.30;99.90
18597;DHT22;9428;50.950;6.912;2022-08-01T09:39:58;22.60;99.90
18597;DHT22;9428;50.950;6.912;2022-08-01T09:42:46;23.40;99.90
18597;DHT22;9428;50.950;6.912;2022-08-01T09:45:37;23.50;99.90
18597;DHT22;9428;50.950;6.912;2022-08-01T09:48:25;23.90;99.90
18597;DHT22;9428;50.950;6.912;2022-08-01T09:51:27;23.80;99.90
18597;DHT22;9428;50.950;6.912;2022-08-01T09:54:28;23.80;99.90
18597;DHT22;9428;50.950;6.912;2022-08-01T09:57:19;23.70;99.90
18597;DHT22;9428;50.950;6.912;2022-08-01T10:00:17;23.90;99.90
18597;DHT22;9428;50.950;6.912;2022-08-01T10:03:19;23.80;99.90
18597;DHT22;9428;50.950;6.912;2022-08-01T10:06:19;23.90;99.90
18597;DHT22;9428;50.950;6.912;2022-08-01T10:09:07;23.80;99.90
18597;DHT22;9428;50.950;6.912;2022-08-01T10:11:55;23.90;99.90
18597;DHT22;9428;50.950;6.912;2022-08-01T10:14:46;23.40;99.90
18597;DHT22;9428;50.950;6.912;2022-08-01T10:17:38;23.70;99.90
18597;DHT22;9428;50.950;6.912;2022-08-01T10:20:29;23.40;99.90
18597;DHT22;9428;50.950;6.912;2022-08-01T10:23:17;23.40;99.90
18597;DHT22;9428;50.950;6.912;2022-08-01T10:26:05;23.50;99.90
18597;DHT22;9428;50.950;6.912;2022-08-01T10:28:54;23.50;99.90
18597;DHT22;9428;50.950;6.912;2022-08-01T10:31:43;23.70;99.90
18597;DHT22;9428;50.950;6.912;2022-08-01T10:34:31;23.80;99.90
18597;DHT22;9428;50.950;6.912;2022-08-01T10:37:21;23.80;99.90
18597;DHT22;9428;50.950;6.912;2022-08-01T10:40:11;23.70;99.90
18597;DHT22;9428;50.950;6.912;2022-08-01T10:42:58;23.80;99.90
18597;DHT22;9428;50.950;6.912;2022-08-01T10:45:46;23.80;99.90
18597;DHT22;9428;50.950;6.912;2022-08-01T10:48:42;23.80;99.90
18597;DHT22;9428;50.950;6.912;2022-08-01T10:51:34;23.90;99.90
18597;DHT22;9428;50.950;6.912;2022-08-01T10:54:24;24.00;99.90
18597;DHT22;9428;50.950;6.912;2022-08-01T10:57:12;24.00;99.90
18597;DHT22;9428;50.950;6.912;2022-08-01T11:00:01;24.10;99.90
18597;DHT22;9428;50.950;6.912;2022-08-01T11:02:58;24.10;99.90
18597;DHT22;9428;50.950;6.912;2022-08-01T11:05:51;24.30;99.90
18597;DHT22;9428;50.950;6.912;2022-08-01T11:08:39;24.20;99.90
18597;DHT22;9428;50.950;6.912;2022-08-01T11:11:26;24.30;99.90
18597;DHT22;9428;50.950;6.912;2022-08-01T11:14:13;24.00;99.90
18597;DHT22;9428;50.950;6.912;2022-08-01T11:17:31;24.10;99.90
18597;DHT22;9428;50.950;6.912;2022-08-01T11:20:20;23.90;99.90
18597;DHT22;9428;50.950;6.912;2022-08-01T11:23:18;23.90;99.90
18597;DHT22;9428;50.950;6.912;2022-08-01T11:26:13;23.90;99.90
18597;DHT22;9428;50.950;6.912;2022-08-01T11:29:13;23.90;99.90
18597;DHT22;9428;50.950;6.912;2022-08-01T11:32:23;24.20;99.90
18597;DHT22;9428;50.950;6.912;2022-08-01T11:35:11;24.20;99.90
18597;DHT22;9428;50.950;6.912;2022-08-01T11:38:24;24.30;99.90
18597;DHT22;9428;50.950;6.912;2022-08-01T11:41:15;24.40;99.90
18597;DHT22;9428;50.950;6.912;2022-08-01T11:44:04;24.60;99.90
18597;DHT22;9428;50.950;6.912;2022-08-01T11:47:00;24.40;99.90
18597;DHT22;9428;50.950;6.912;2022-08-01T11:49:49;24.30;99.90
18597;DHT22;9428;50.950;6.912;2022-08-01T11:52:40;24.20;99.90
18597;DHT22;9428;50.950;6.912;2022-08-01T11:55:30;24.40;99.90
18597;DHT22;9428;50.950;6.912;2022-08-01T11:58:21;24.30;99.90
18597;DHT22;9428;50.950;6.912;2022-08-01T12:01:12;24.30;99.90
18597;DHT22;9428;50.950;6.912;2022-08-01T12:04:00;24.60;99.90
18597;DHT22;9428;50.950;6.912;2022-08-01T12:06:48;24.70;99.90
18597;DHT22;9428;50.950;6.912;2022-08-01T12:09:35;24.80;99.90
18597;DHT22;9428;50.950;6.912;2022-08-01T12:12:24;24.90;99.90
18597;DHT22;9428;50.950;6.912;2022-08-01T12:15:12;24.70;99.90
18597;DHT22;9428;50.950;6.912;2022-08-01T12:18:01;24.50;99.90
18597;DHT22;9428;50.950;6.912;2022-08-01T12:20:50;24.40;99.90
18597;DHT22;9428;50.950;6.912;2022-08-01T12:23:37;24.50;99.90
18597;DHT22;9428;50.950;6.912;2022-08-01T12:26:39;24.50;99.90
18597;DHT22;9428;50.950;6.912;2022-08-01T12:29:38;24.50;99.90
18597;DHT22;9428;50.950;6.912;2022-08-01T12:32:28;24.70;99.90
18597;DHT22;9428;50.950;6.912;2022-08-01T12:35:19;24.70;99.90
18597;DHT22;9428;50.950;6.912;2022-08-01T12:38:14;24.60;99.90
18597;DHT22;9428;50.950;6.912;2022-08-01T12:41:02;24.60;99.90
18597;DHT22;9428;50.950;6.912;2022-08-01T12:43:49;24.60;99.90
18597;DHT22;9428;50.950;6.912;2022-08-01T12:46:38;24.60;99.90
18597;DHT22;9428;50.950;6.912;2022-08-01T12:49:26;24.70;99.90
18597;DHT22;9428;50.950;6.912;2022-08-01T12:52:14;24.40;99.90
18597;DHT22;9428;50.950;6.912;2022-08-01T12:55:05;24.00;99.90
18597;DHT22;9428;50.950;6.912;2022-08-01T12:58:04;24.50;99.90
18597;DHT22;9428;50.950;6.912;2022-08-01T13:01:02;24.40;99.90
18597;DHT22;9428;50.950;6.912;2022-08-01T13:03:59;24.70;99.90
18597;DHT22;9428;50.950;6.912;2022-08-01T13:06:47;24.70;99.90
18597;DHT22;9428;50.950;6.912;2022-08-01T13:09:34;24.80;99.90
18597;DHT22;9428;50.950;6.912;2022-08-01T13:12:21;25.00;99.90
18597;DHT22;9428;50.950;6.912;2022-08-01T13:15:20;24.80;99.90
18597;DHT22;9428;50.950;6.912;2022-08-01T13:18:25;25.00;99.90
18597;DHT22;9428;50.950;6.912;2022-08-01T13:21:15;25.00;99.90
18597;DHT22;9428;50.950;6.912;2022-08-01T13:24:06;25.20;99.90
18597;DHT22;9428;50.950;6.912;2022-08-01T13:26:56;25.10;99.90
18597;DHT22;9428;50.950;6.912;2022-08-01T13:29:45;25.40;99.90
18597;DHT22;9428;50.950;6.912;2022-08-01T13:32:35;25.40;99.90
18597;DHT22;9428;50.950;6.912;2022-08-01T13:35:23;25.50;99.90
18597;DHT22;9428;50.950;6.912;2022-08-01T13:38:12;25.60;99.90
18597;DHT22;9428;50.950;6.912;2022-08-01T13:40:59;25.30;99.90
18597;DHT22;9428;50.950;6.912;2022-08-01T13:43:46;25.40;99.90
18597;DHT22;9428;50.950;6.912;2022-08-01T13:46:34;25.50;99.90
18597;DHT22;9428;50.950;6.912;2022-08-01T13:49:21;25.50;99.90
18597;DHT22;9428;50.950;6.912;2022-08-01T13:52:08;25.40;99.90
18597;DHT22;9428;50.950;6.912;2022-08-01T13:54:57;25.40;99.90
18597;DHT22;9428;50.950;6.912;2022-08-01T13:57:45;25.30;99.90
18597;DHT22;9428;50.950;6.912;2022-08-01T14:00:32;25.30;99.90
18597;DHT22;9428;50.950;6.912;2022-08-01T14:03:19;25.20;99.90
18597;DHT22;9428;50.950;6.912;2022-08-01T14:06:06;25.20;99.90
18597;DHT22;9428;50.950;6.912;2022-08-01T14:08:54;25.30;99.90
18597;DHT22;9428;50.950;6.912;2022-08-01T14:11:42;25.20;99.90
18597;DHT22;9428;50.950;6.912;2022-08-01T14:14:29;25.20;99.90
18597;DHT22;9428;50.950;6.912;2022-08-01T14:17:17;25.00;99.90
18597;DHT22;9428;50.950;6.912;2022-08-01T14:20:05;25.00;99.90
18597;DHT22;9428;50.950;6.912;2022-08-01T14:22:52;24.90;99.90
18597;DHT22;9428;50.950;6.912;2022-08-01T14:25:40;24.90;99.90
18597;DHT22;9428;50.950;6.912;2022-08-01T14:28:29;25.10;99.90
18597;DHT22;9428;50.950;6.912;2022-08-01T14:31:17;25.10;99.90
18597;DHT22;9428;50.950;6.912;2022-08-01T14:34:04;25.10;99.90
18597;DHT22;9428;50.950;6.912;2022-08-01T14:36:51;25.30;99.90
18597;DHT22;9428;50.950;6.912;2022-08-01T14:39:40;25.40;99.90
18597;DHT22;9428;50.950;6.912;2022-08-01T14:42:27;25.60;99.90
18597;DHT22;9428;50.950;6.912;2022-08-01T14:45:16;25.50;99.90
18597;DHT22;9428;50.950;6.912;2022-08-01T14:48:04;25.50;99.90
18597;DHT22;9428;50.950;6.912;2022-08-01T14:50:51;25.50;99.90
18597;DHT22;9428;50.950;6.912;2022-08-01T14:53:38;25.50;99.90
18597;DHT22;9428;50.950;6.912;2022-08-01T14:56:26;25.40;99.90
18597;DHT22;9428;50.950;6.912;2022-08-01T14:59:13;25.40;99.90
18597;DHT22;9428;50.950;6.912;2022-08-01T15:02:02;25.50;99.90
18597;DHT22;9428;50.950;6.912;2022-08-01T15:04:50;25.40;99.90
18597;DHT22;9428;50.950;6.912;2022-08-01T15:07:37;25.30;99.90
18597;DHT22;9428;50.950;6.912;2022-08-01T15:10:25;25.10;99.90
18597;DHT22;9428;50.950;6.912;2022-08-01T15:13:13;25.20;99.90
18597;DHT22;9428;50.950;6.912;2022-08-01T15:16:00;25.20;99.90
18597;DHT22;9428;50.950;6.912;2022-08-01T15:18:49;25.30;99.90
18597;DHT22;9428;50.950;6.912;2022-08-01T15:21:36;25.30;99.90
18597;DHT22;9428;50.950;6.912;2022-08-01T15:24:23;25.20;99.90
18597;DHT22;9428;50.950;6.912;2022-08-01T15:27:10;25.20;99.90
18597;DHT22;9428;50.950;6.912;2022-08-01T15:29:58;25.20;99.90
18597;DHT22;9428;50.950;6.912;2022-08-01T15:32:45;25.00;99.90
18597;DHT22;9428;50.950;6.912;2022-08-01T15:35:34;25.10;99.90
18597;DHT22;9428;50.950;6.912;2022-08-01T15:38:21;24.90;99.90
18597;DHT22;9428;50.950;6.912;2022-08-01T15:41:08;25.00;99.90
18597;DHT22;9428;50.950;6.912;2022-08-01T15:43:55;25.20;99.90
18597;DHT22;9428;50.950;6.912;2022-08-01T15:46:43;25.00;99.90
18597;DHT22;9428;50.950;6.912;2022-08-01T15:49:32;25.10;99.90
18597;DHT22;9428;50.950;6.912;2022-08-01T15:52:23;24.80;99.90
18597;DHT22;9428;50.950;6.912;2022-08-01T15:55:10;24.80;99.90
18597;DHT22;9428;50.950;6.912;2022-08-01T15:57:57;25.00;99.90
18597;DHT22;9428;50.950;6.912;2022-08-01T16:00:44;25.10;99.90
18597;DHT22;9428;50.950;6.912;2022-08-01T16:03:32;25.20;99.90
18597;DHT22;9428;50.950;6.912;2022-08-01T16:06:19;25.10;99.90
18597;DHT22;9428;50.950;6.912;2022-08-01T16:09:08;25.10;99.90
18597;DHT22;9428;50.950;6.912;2022-08-01T16:11:56;24.90;99.90
18597;DHT22;9428;50.950;6.912;2022-08-01T16:14:43;24.60;99.90
18597;DHT22;9428;50.950;6.912;2022-08-01T16:17:30;24.60;99.90
18597;DHT22;9428;50.950;6.912;2022-08-01T16:20:17;24.80;99.90
18597;DHT22;9428;50.950;6.912;2022-08-01T16:23:04;24.80;99.90
18597;DHT22;9428;50.950;6.912;2022-08-01T16:25:53;24.80;99.90
18597;DHT22;9428;50.950;6.912;2022-08-01T16:28:41;24.70;99.90
18597;DHT22;9428;50.950;6.912;2022-08-01T16:31:29;24.90;99.90
18597;DHT22;9428;50.950;6.912;2022-08-01T16:34:17;24.80;99.90
18597;DHT22;9428;50.950;6.912;2022-08-01T16:37:04;24.70;99.90
18597;DHT22;9428;50.950;6.912;2022-08-01T16:39:51;24.70;99.90
18597;DHT22;9428;50.950;6.912;2022-08-01T16:42:40;24.50;99.90
18597;DHT22;9428;50.950;6.912;2022-08-01T16:45:27;24.40;99.90
18597;DHT22;9428;50.950;6.912;2022-08-01T16:48:15;24.50;99.90
18597;DHT22;9428;50.950;6.912;2022-08-01T16:51:03;24.60;99.90
18597;DHT22;9428;50.950;6.912;2022-08-01T16:53:50;24.60;99.90
18597;DHT22;9428;50.950;6.912;2022-08-01T16:56:38;24.50;99.90
18597;DHT22;9428;50.950;6.912;2022-08-01T16:59:26;24.50;99.90
18597;DHT22;9428;50.950;6.912;2022-08-01T17:02:13;24.20;99.90
18597;DHT22;9428;50.950;6.912;2022-08-01T17:05:01;24.30;99.90
18597;DHT22;9428;50.950;6.912;2022-08-01T17:07:48;24.20;99.90
18597;DHT22;9428;50.950;6.912;2022-08-01T17:10:36;24.00;99.90
18597;DHT22;9428;50.950;6.912;2022-08-01T17:13:23;23.90;99.90
18597;DHT22;9428;50.950;6.912;2022-08-01T17:16:12;24.00;99.90
18597;DHT22;9428;50.950;6.912;2022-08-01T17:18:59;24.10;99.90
18597;DHT22;9428;50.950;6.912;2022-08-01T17:21:48;24.20;99.90
18597;DHT22;9428;50.950;6.912;2022-08-01T17:24:35;24.20;99.90
18597;DHT22;9428;50.950;6.912;2022-08-01T17:27:23;24.20;99.90
18597;DHT22;9428;50.950;6.912;2022-08-01T17:30:11;24.20;99.90
18597;DHT22;9428;50.950;6.912;2022-08-01T17:33:01;24.10;99.90
18597;DHT22;9428;50.950;6.912;2022-08-01T17:35:48;24.00;99.90
18597;DHT22;9428;50.950;6.912;2022-08-01T17:38:35;23.90;99.90
18597;DHT22;9428;50.950;6.912;2022-08-01T17:41:22;24.00;99.90
18597;DHT22;9428;50.950;6.912;2022-08-01T17:44:10;24.00;99.90
18597;DHT22;9428;50.950;6.912;2022-08-01T17:46:57;24.10;99.90
18597;DHT22;9428;50.950;6.912;2022-08-01T17:49:45;24.00;99.90
18597;DHT22;9428;50.950;6.912;2022-08-01T17:52:33;23.70;99.90
18597;DHT22;9428;50.950;6.912;2022-08-01T17:55:21;23.80;99.90
18597;DHT22;9428;50.950;6.912;2022-08-01T17:58:08;23.70;99.90
18597;DHT22;9428;50.950;6.912;2022-08-01T18:00:57;23.80;99.90
18597;DHT22;9428;50.950;6.912;2022-08-01T18:03:45;23.70;99.90
18597;DHT22;9428;50.950;6.912;2022-08-01T18:06:34;23.80;99.90